TimeCET,TemperatureF,Dew PointF,Humidity,Sea Level PressureIn,VisibilityMPH,Wind Direction,Wind SpeedMPH,Gust SpeedMPH,PrecipitationIn,Events,Conditions,WindDirDegrees,DateUTC
12:00 AM,62.6,51.8,68,29.95,6.2,NNW,13.8,-,N/A,,Partly Cloudy,330,2012-11-04 23:00:00
12:30 AM,62.6,51.8,68,29.95,6.2,NNW,5.8,-,N/A,,Partly Cloudy,330,2012-11-04 23:30:00
1:00 AM,60.8,55.4,82,29.98,6.2,WNW,3.5,-,N/A,,Partly Cloudy,300,2012-11-05 00:00:00
4:30 AM,59.0,51.8,77,30.01,-9999.0,NNW,5.8,-,N/A,,Clear,330,2012-11-05 03:30:00
5:00 AM,57.2,48.2,72,30.04,-9999.0,North,8.1,-,N/A,,Clear,10,2012-11-05 04:00:00
5:30 AM,55.4,48.2,77,30.04,-9999.0,NNE,6.9,-,N/A,,Clear,20,2012-11-05 04:30:00
6:00 AM,55.4,46.4,72,30.04,-9999.0,North,9.2,-,N/A,,Clear,10,2012-11-05 05:00:00
6:30 AM,53.6,46.4,77,30.04,-9999.0,North,9.2,-,N/A,,Clear,10,2012-11-05 05:30:00
7:00 AM,53.6,44.6,72,30.06,-9999.0,NNE,8.1,-,N/A,,Clear,20,2012-11-05 06:00:00
7:30 AM,51.8,44.6,76,30.06,-9999.0,NNE,6.9,-,N/A,,Clear,20,2012-11-05 06:30:00
8:00 AM,51.8,44.6,76,30.06,-9999.0,NNE,4.6,-,N/A,,Clear,30,2012-11-05 07:00:00
8:30 AM,51.8,42.8,71,30.06,-9999.0,NNE,8.1,-,N/A,,Clear,30,2012-11-05 07:30:00
9:00 AM,53.6,42.8,67,30.06,-9999.0,NNE,10.4,-,N/A,,Clear,20,2012-11-05 08:00:00
9:30 AM,53.6,42.8,67,30.09,-9999.0,North,8.1,-,N/A,,Clear,10,2012-11-05 08:30:00
10:00 AM,55.4,41.0,58,30.09,-9999.0,North,9.2,-,N/A,,Clear,10,2012-11-05 09:00:00
10:30 AM,55.4,42.8,63,30.09,-9999.0,North,6.9,-,N/A,,Clear,10,2012-11-05 09:30:00
11:00 AM,57.2,42.8,59,30.09,-9999.0,NNE,4.6,-,N/A,,Clear,20,2012-11-05 10:00:00
11:30 AM,57.2,42.8,59,30.09,-9999.0,East,3.5,-,N/A,,Clear,80,2012-11-05 10:30:00
12:30 PM,59.0,44.6,59,30.06,-9999.0,ENE,3.5,-,N/A,,Clear,70,2012-11-05 11:30:00
1:00 PM,59.0,44.6,59,30.06,-9999.0,Variable,2.3,-,N/A,,Clear,0,2012-11-05 12:00:00
1:30 PM,60.8,46.4,59,30.06,-9999.0,NE,4.6,-,N/A,,Clear,40,2012-11-05 12:30:00
2:00 PM,60.8,46.4,59,30.06,-9999.0,ENE,3.5,-,N/A,,Clear,70,2012-11-05 13:00:00
2:30 PM,60.8,46.4,59,30.04,-9999.0,ENE,4.6,-,N/A,,Clear,70,2012-11-05 13:30:00
3:00 PM,60.8,46.4,59,30.04,-9999.0,ENE,5.8,-,N/A,,Clear,70,2012-11-05 14:00:00
3:30 PM,60.8,46.4,59,30.04,-9999.0,NE,4.6,-,N/A,,Clear,40,2012-11-05 14:30:00
4:00 PM,60.8,44.6,55,30.04,-9999.0,East,5.8,-,N/A,,Clear,80,2012-11-05 15:00:00
4:30 PM,60.8,46.4,59,30.04,-9999.0,NE,2.3,-,N/A,,Clear,40,2012-11-05 15:30:00
5:00 PM,60.8,44.6,55,30.04,-9999.0,NE,3.5,-,N/A,,Clear,50,2012-11-05 16:00:00
5:30 PM,60.8,48.2,63,30.04,-9999.0,NNE,2.3,-,N/A,,Clear,30,2012-11-05 16:30:00
6:00 PM,60.8,50.0,68,30.04,-9999.0,NNE,2.3,-,N/A,,Clear,30,2012-11-05 17:00:00
6:30 PM,59.0,50.0,72,30.04,-9999.0,Variable,2.3,-,N/A,,Clear,0,2012-11-05 17:30:00
7:00 PM,59.0,50.0,72,30.04,-9999.0,NNW,4.6,-,N/A,,Clear,340,2012-11-05 18:00:00
7:30 PM,59.0,50.0,72,30.04,-9999.0,North,4.6,-,N/A,,Clear,350,2012-11-05 18:30:00
8:00 PM,59.0,50.0,72,30.04,6.2,Variable,1.2,-,N/A,,Scattered Clouds,0,2012-11-05 19:00:00
8:30 PM,57.2,51.8,82,30.04,6.2,East,4.6,-,N/A,,Scattered Clouds,80,2012-11-05 19:30:00
9:00 PM,57.2,51.8,82,30.04,6.2,Variable,2.3,-,N/A,,Scattered Clouds,0,2012-11-05 20:00:00
9:30 PM,57.2,50.0,77,30.04,6.2,North,3.5,-,N/A,,Partly Cloudy,350,2012-11-05 20:30:00
10:00 PM,57.2,50.0,77,30.04,-9999.0,NE,3.5,-,N/A,,Clear,50,2012-11-05 21:00:00
10:30 PM,57.2,50.0,77,30.06,-9999.0,NNE,3.5,-,N/A,,Clear,30,2012-11-05 21:30:00
11:00 PM,57.2,51.8,82,30.04,-9999.0,NE,3.5,-,N/A,,Clear,40,2012-11-05 22:00:00
11:30 PM,57.2,50.0,77,30.04,-9999.0,NNE,5.8,-,N/A,,Clear,20,2012-11-05 22:30:00